Kaohsiung Tower+GND 高雄塔台+地面

Kaohsiung Metar:
2017/12/16 16:00 RCKH 161600Z 36006KT 320V030 9999 FEW015 SCT030 BKN045 17/12 Q1020 NOSIG RMK A3012

站台狀態: